createdAt,value
2019-04-16T00:00:42.450Z,56.77
2019-04-16T00:01:44.351Z,56.68
2019-04-16T00:02:40.671Z,56.68
2019-04-16T00:03:39.663Z,56.68
2019-04-16T00:04:39.670Z,56.68
2019-04-16T00:05:39.635Z,56.68
2019-04-16T00:06:39.622Z,56.68
2019-04-16T00:07:39.614Z,56.68
2019-04-16T00:08:39.624Z,56.68
2019-04-16T00:09:39.623Z,56.68
2019-04-16T00:10:39.583Z,56.57
2019-04-16T00:11:39.572Z,56.57
2019-04-16T00:12:39.557Z,56.57
2019-04-16T00:13:39.574Z,56.57
2019-04-16T00:14:39.537Z,56.57
2019-04-16T00:15:41.450Z,56.57
2019-04-16T00:16:41.385Z,56.57
2019-04-16T00:17:40.514Z,56.57
2019-04-16T00:18:39.516Z,56.68
2019-04-16T00:19:39.490Z,56.68
2019-04-16T00:20:39.480Z,56.68
2019-04-16T00:21:41.237Z,56.68
2019-04-16T00:22:39.458Z,56.68
2019-04-16T00:23:39.463Z,56.68
2019-04-16T00:24:39.429Z,56.57
2019-04-16T00:25:39.434Z,56.57
2019-04-16T00:26:39.413Z,56.57
2019-04-16T00:27:39.397Z,56.57
2019-04-16T00:28:39.419Z,56.48
2019-04-16T00:29:39.915Z,56.48
2019-04-16T00:30:39.368Z,56.57
2019-04-16T00:31:39.354Z,56.57
2019-04-16T00:32:42.485Z,56.68
2019-04-16T00:33:42.614Z,56.57
2019-04-16T00:34:39.323Z,56.57
2019-04-16T00:35:39.348Z,56.57
2019-04-16T00:36:39.313Z,56.57
2019-04-16T00:37:39.295Z,56.68
2019-04-16T00:38:40.875Z,56.68
2019-04-16T00:39:39.272Z,56.57
2019-04-16T00:40:39.279Z,56.57
2019-04-16T00:41:39.248Z,56.68
2019-04-16T00:42:39.237Z,56.68
2019-04-16T00:43:39.231Z,56.57
2019-04-16T00:44:39.215Z,56.57
2019-04-16T00:45:39.231Z,56.68
2019-04-16T00:46:39.197Z,56.57
2019-04-16T00:47:39.186Z,56.57
2019-04-16T00:48:39.203Z,56.57
2019-04-16T00:49:39.173Z,56.57
2019-04-16T00:50:39.162Z,56.57
2019-04-16T00:51:39.174Z,56.57
2019-04-16T00:52:39.138Z,56.57
2019-04-16T00:53:39.755Z,56.57
2019-04-16T00:54:42.136Z,56.57
2019-04-16T00:55:39.102Z,56.48
2019-04-16T00:56:39.092Z,56.57
2019-04-16T00:57:39.108Z,56.48
2019-04-16T00:58:39.088Z,56.57
2019-04-16T00:59:39.062Z,56.48
2019-04-16T01:00:39.051Z,56.48
2019-04-16T01:01:39.044Z,56.57
2019-04-16T01:02:39.029Z,56.57
2019-04-16T01:03:39.232Z,56.57
2019-04-16T01:04:39.002Z,56.57
2019-04-16T01:05:38.993Z,56.57
2019-04-16T01:06:40.627Z,56.57
2019-04-16T01:07:38.978Z,56.57
2019-04-16T01:08:38.965Z,56.57
2019-04-16T01:09:38.975Z,56.57
2019-04-16T01:10:38.942Z,56.57
2019-04-16T01:11:38.939Z,56.57
2019-04-16T01:12:38.926Z,56.57
2019-04-16T01:13:38.923Z,56.57
2019-04-16T01:14:38.931Z,56.57
2019-04-16T01:15:38.889Z,56.57
2019-04-16T01:16:38.879Z,56.48
2019-04-16T01:17:38.864Z,56.48
2019-04-16T01:18:39.386Z,56.48
2019-04-16T01:19:41.180Z,56.37
2019-04-16T01:20:40.449Z,56.37
2019-04-16T01:21:38.831Z,56.37
2019-04-16T01:22:38.815Z,56.37
2019-04-16T01:23:38.802Z,56.37
2019-04-16T01:24:38.792Z,56.37
2019-04-16T01:25:38.783Z,56.48
2019-04-16T01:26:38.791Z,56.48
2019-04-16T01:27:38.757Z,56.48
2019-04-16T01:28:38.752Z,56.48
2019-04-16T01:29:38.739Z,56.48
2019-04-16T01:30:38.753Z,56.48
2019-04-16T01:31:39.318Z,56.37
2019-04-16T01:32:42.458Z,56.48
2019-04-16T01:33:38.704Z,56.48
2019-04-16T01:34:38.688Z,56.37
2019-04-16T01:35:38.675Z,56.48
2019-04-16T01:36:38.683Z,56.48
2019-04-16T01:37:38.656Z,56.37
2019-04-16T01:38:38.650Z,56.37
2019-04-16T01:39:38.634Z,56.37
2019-04-16T01:40:38.622Z,56.37
2019-04-16T01:41:38.637Z,56.37
2019-04-16T01:42:38.602Z,56.37
2019-04-16T01:43:38.587Z,56.37
2019-04-16T01:44:38.598Z,56.37
2019-04-16T01:45:38.568Z,56.37
2019-04-16T01:46:38.562Z,56.37
2019-04-16T01:47:38.568Z,56.27
2019-04-16T01:48:39.636Z,56.27
2019-04-16T01:49:39.280Z,56.37
2019-04-16T01:50:38.518Z,56.37
2019-04-16T01:51:38.533Z,56.27
2019-04-16T01:52:38.490Z,56.27
2019-04-16T01:53:38.481Z,56.27
2019-04-16T01:54:38.492Z,56.27
2019-04-16T01:55:38.493Z,56.27
2019-04-16T01:56:38.447Z,56.27
2019-04-16T01:57:38.438Z,56.27
2019-04-16T01:58:38.427Z,56.27
2019-04-16T01:59:38.419Z,56.27
2019-04-16T02:00:39.181Z,56.27
2019-04-16T02:01:40.327Z,56.27
2019-04-16T02:02:38.387Z,56.17
2019-04-16T02:03:38.377Z,56.27
2019-04-16T02:04:38.367Z,56.17
2019-04-16T02:05:38.359Z,56.17
2019-04-16T02:06:38.349Z,56.17
2019-04-16T02:07:38.373Z,56.17
2019-04-16T02:08:38.326Z,56.17
2019-04-16T02:09:38.313Z,56.27
2019-04-16T02:10:39.075Z,56.27
2019-04-16T02:11:38.799Z,56.27
2019-04-16T02:12:38.276Z,56.27
2019-04-16T02:13:38.295Z,56.17
2019-04-16T02:14:38.257Z,56.17
2019-04-16T02:15:38.255Z,56.17
2019-04-16T02:16:38.239Z,56.07
2019-04-16T02:17:38.233Z,56.07
2019-04-16T02:18:38.244Z,56.07
2019-04-16T02:19:38.209Z,56.07
2019-04-16T02:20:39.282Z,56.17
2019-04-16T02:21:39.022Z,56.17
2019-04-16T02:22:38.176Z,56.17
2019-04-16T02:23:38.180Z,56.17
2019-04-16T02:24:38.163Z,56.27
2019-04-16T02:25:38.144Z,56.17
2019-04-16T02:26:38.130Z,56.17
2019-04-16T02:27:38.126Z,56.17
2019-04-16T02:28:38.110Z,56.07
2019-04-16T02:29:38.117Z,56.07
2019-04-16T02:30:39.691Z,56.07
2019-04-16T02:31:38.085Z,56.07
2019-04-16T02:32:38.067Z,56.07
2019-04-16T02:33:38.071Z,56.17
2019-04-16T02:34:38.045Z,56.17
2019-04-16T02:35:38.037Z,56.17
2019-04-16T02:36:38.026Z,56.17
2019-04-16T02:37:38.022Z,56.17
2019-04-16T02:38:38.018Z,56.07
2019-04-16T02:39:46.974Z,56.07
2019-04-16T02:40:38.986Z,56.10
2019-04-16T02:41:37.966Z,56.07
2019-04-16T02:42:37.988Z,56.07
2019-04-16T02:43:41.013Z,56.20
2019-04-16T02:44:37.938Z,56.10
2019-04-16T02:45:37.928Z,56.20
2019-04-16T02:46:37.919Z,56.20
2019-04-16T02:47:41.621Z,56.10
2019-04-16T02:48:37.890Z,56.17
2019-04-16T02:49:37.885Z,56.17
2019-04-16T02:50:37.891Z,56.20
2019-04-16T02:51:41.317Z,56.17
2019-04-16T02:52:37.854Z,56.20
2019-04-16T02:53:37.862Z,56.17
2019-04-16T02:54:37.831Z,56.10
2019-04-16T02:55:42.914Z,56.07
2019-04-16T02:56:38.811Z,56.10
2019-04-16T02:57:37.795Z,56.10
2019-04-16T02:58:37.812Z,56.10
2019-04-16T02:59:37.778Z,56.10
2019-04-16T03:00:37.765Z,56.10
2019-04-16T03:01:37.751Z,56.07
2019-04-16T03:02:37.741Z,56.07
2019-04-16T03:03:37.957Z,55.99
2019-04-16T03:04:37.734Z,55.99
2019-04-16T03:05:37.716Z,55.97
2019-04-16T03:06:37.698Z,55.99
2019-04-16T03:07:37.697Z,56.07
2019-04-16T03:08:37.689Z,55.99
2019-04-16T03:09:40.163Z,55.99
2019-04-16T03:10:37.658Z,56.10
2019-04-16T03:11:37.653Z,56.07
2019-04-16T03:12:37.640Z,55.99
2019-04-16T03:13:37.652Z,55.97
2019-04-16T03:14:37.619Z,55.99
2019-04-16T03:15:37.641Z,55.97
2019-04-16T03:16:38.635Z,55.99
2019-04-16T03:17:39.532Z,55.90
2019-04-16T03:18:38.577Z,55.90
2019-04-16T03:19:39.015Z,55.90
2019-04-16T03:20:37.557Z,55.90
2019-04-16T03:21:37.567Z,55.87
2019-04-16T03:22:37.533Z,55.90
2019-04-16T03:23:37.853Z,55.90
2019-04-16T03:24:40.091Z,55.99
2019-04-16T03:25:37.502Z,55.99
2019-04-16T03:26:37.521Z,55.97
2019-04-16T03:27:37.475Z,55.97
2019-04-16T03:28:37.488Z,55.99
2019-04-16T03:29:37.454Z,55.99
2019-04-16T03:30:42.064Z,55.90
2019-04-16T03:31:38.491Z,55.99
2019-04-16T03:32:37.428Z,55.99
2019-04-16T03:33:37.418Z,55.99
2019-04-16T03:34:37.401Z,55.99
2019-04-16T03:35:37.405Z,55.99
2019-04-16T03:36:37.385Z,55.90
2019-04-16T03:37:37.396Z,55.99
2019-04-16T03:38:41.801Z,55.90
2019-04-16T03:39:37.351Z,55.90
2019-04-16T03:40:37.342Z,55.90
2019-04-16T03:41:37.325Z,55.90
2019-04-16T03:42:37.347Z,55.90
2019-04-16T03:43:37.310Z,55.90
2019-04-16T03:44:37.591Z,55.99
2019-04-16T03:45:37.525Z,55.99
2019-04-16T03:46:39.965Z,55.99
2019-04-16T03:47:37.261Z,55.90
2019-04-16T03:48:37.253Z,55.90
2019-04-16T03:49:37.243Z,55.90
2019-04-16T03:50:37.257Z,55.99
2019-04-16T03:51:37.224Z,55.90
2019-04-16T03:52:37.501Z,55.90
2019-04-16T03:53:37.202Z,55.99
2019-04-16T03:54:37.187Z,55.99
2019-04-16T03:55:37.186Z,55.90
2019-04-16T03:56:37.211Z,55.90
2019-04-16T03:57:37.162Z,55.99
2019-04-16T03:58:38.556Z,55.99
2019-04-16T03:59:39.950Z,55.90
2019-04-16T04:00:37.130Z,55.90
2019-04-16T04:01:37.111Z,55.90
2019-04-16T04:02:37.131Z,55.79
2019-04-16T04:03:37.092Z,55.79
2019-04-16T04:04:37.084Z,55.79
2019-04-16T04:05:37.070Z,55.69
2019-04-16T04:06:39.504Z,55.79
2019-04-16T04:07:37.051Z,55.79
2019-04-16T04:08:37.077Z,55.79
2019-04-16T04:09:37.071Z,55.79
2019-04-16T04:10:37.889Z,55.79
2019-04-16T04:11:40.931Z,55.79
2019-04-16T04:12:37.001Z,55.69
2019-04-16T04:13:36.989Z,55.69
2019-04-16T04:14:36.980Z,55.69
2019-04-16T04:15:36.991Z,55.69
2019-04-16T04:16:36.952Z,55.69
2019-04-16T04:17:38.600Z,55.69
2019-04-16T04:18:36.942Z,55.69
2019-04-16T04:19:36.939Z,55.69
2019-04-16T04:20:36.911Z,55.69
2019-04-16T04:21:36.934Z,55.69
2019-04-16T04:22:36.893Z,55.69
2019-04-16T04:23:36.876Z,55.69
2019-04-16T04:24:36.869Z,55.69
2019-04-16T04:25:37.118Z,55.69
2019-04-16T04:26:40.944Z,55.69
2019-04-16T04:27:37.855Z,55.59
2019-04-16T04:28:36.822Z,55.69
2019-04-16T04:29:36.814Z,55.69
2019-04-16T04:30:36.800Z,55.69
2019-04-16T04:31:37.026Z,55.69
2019-04-16T04:32:36.784Z,55.69
2019-04-16T04:33:40.388Z,55.59
2019-04-16T04:34:36.762Z,55.59
2019-04-16T04:35:36.753Z,55.59
2019-04-16T04:36:36.745Z,55.59
2019-04-16T04:37:36.751Z,55.69
2019-04-16T04:38:37.444Z,55.69
2019-04-16T04:39:36.711Z,55.69
2019-04-16T04:40:44.183Z,55.69
2019-04-16T04:41:37.684Z,55.59
2019-04-16T04:42:36.676Z,55.59
2019-04-16T04:43:36.668Z,55.59
2019-04-16T04:44:37.135Z,55.59
2019-04-16T04:45:37.689Z,55.49
2019-04-16T04:46:36.632Z,55.59
2019-04-16T04:47:36.619Z,55.59
2019-04-16T04:48:36.611Z,55.69
2019-04-16T04:49:36.601Z,55.69
2019-04-16T04:50:36.615Z,55.69
2019-04-16T04:51:42.687Z,55.59
2019-04-16T04:52:37.570Z,55.59
2019-04-16T04:53:36.558Z,55.59
2019-04-16T04:54:36.546Z,55.59
2019-04-16T04:55:36.579Z,55.59
2019-04-16T04:56:36.530Z,55.59
2019-04-16T04:57:36.512Z,55.59
2019-04-16T04:58:36.516Z,55.59
2019-04-16T04:59:37.446Z,55.59
2019-04-16T05:00:37.461Z,55.59
2019-04-16T05:01:36.499Z,55.59
2019-04-16T05:02:36.465Z,55.59
2019-04-16T05:03:36.451Z,55.59
2019-04-16T05:04:36.442Z,55.59
2019-04-16T05:05:36.463Z,55.59
2019-04-16T05:06:36.418Z,55.59
2019-04-16T05:07:36.404Z,55.59
2019-04-16T05:08:36.399Z,55.59
2019-04-16T05:09:36.836Z,55.59
2019-04-16T05:10:39.882Z,55.59
2019-04-16T05:11:37.387Z,55.59
2019-04-16T05:12:36.356Z,55.59
2019-04-16T05:13:36.346Z,55.59
2019-04-16T05:14:36.351Z,55.59
2019-04-16T05:15:36.325Z,55.59
2019-04-16T05:16:36.315Z,55.69
2019-04-16T05:17:38.623Z,55.69
2019-04-16T05:18:41.403Z,55.59
2019-04-16T05:19:37.304Z,55.59
2019-04-16T05:20:36.278Z,55.59
2019-04-16T05:21:36.256Z,55.69
2019-04-16T05:22:36.245Z,55.59
2019-04-16T05:23:37.686Z,55.59
2019-04-16T05:24:37.682Z,55.69
2019-04-16T05:25:36.215Z,55.59
2019-04-16T05:26:37.204Z,55.59
2019-04-16T05:27:40.228Z,55.59
2019-04-16T05:28:36.190Z,55.59
2019-04-16T05:29:36.177Z,55.59
2019-04-16T05:30:36.189Z,55.59
2019-04-16T05:31:36.158Z,55.59
2019-04-16T05:32:36.140Z,55.59
2019-04-16T05:33:37.518Z,55.49
2019-04-16T05:34:37.485Z,55.49
2019-04-16T05:35:38.644Z,55.39
2019-04-16T05:36:36.101Z,55.49
2019-04-16T05:37:36.093Z,55.49
2019-04-16T05:38:36.074Z,55.49
2019-04-16T05:39:36.067Z,55.49
2019-04-16T05:40:36.070Z,55.49
2019-04-16T05:41:36.081Z,55.49
2019-04-16T05:42:36.039Z,55.49
2019-04-16T05:43:36.027Z,55.49
2019-04-16T05:44:36.033Z,55.49
2019-04-16T05:45:37.689Z,55.49
2019-04-16T05:46:38.358Z,55.59
2019-04-16T05:47:36.014Z,55.49
2019-04-16T05:48:35.971Z,55.49
2019-04-16T05:49:35.965Z,55.49
2019-04-16T05:50:35.990Z,55.49
2019-04-16T05:51:35.941Z,55.49
2019-04-16T05:52:36.699Z,55.49
2019-04-16T05:53:37.329Z,55.59
2019-04-16T05:54:35.916Z,55.59
2019-04-16T05:55:35.895Z,55.59
2019-04-16T05:56:35.906Z,55.59
2019-04-16T05:57:35.885Z,55.59
2019-04-16T05:58:35.873Z,55.59
2019-04-16T05:59:35.858Z,55.59
2019-04-16T06:00:38.548Z,55.59
2019-04-16T06:01:36.875Z,55.59
2019-04-16T06:02:35.821Z,55.59
2019-04-16T06:03:35.815Z,55.69
2019-04-16T06:04:35.801Z,55.59
2019-04-16T06:05:35.794Z,55.59
2019-04-16T06:06:35.778Z,55.49
2019-04-16T06:07:38.084Z,55.59
2019-04-16T06:08:40.635Z,55.59
2019-04-16T06:09:36.755Z,55.59
2019-04-16T06:10:35.741Z,55.69
2019-04-16T06:11:36.679Z,55.69
2019-04-16T06:12:39.889Z,55.69
2019-04-16T06:13:35.918Z,55.69
2019-04-16T06:14:35.693Z,55.69
2019-04-16T06:15:35.976Z,55.69
2019-04-16T06:16:35.679Z,55.69
2019-04-16T06:17:35.713Z,55.69
2019-04-16T06:18:37.927Z,55.69
2019-04-16T06:19:35.663Z,55.69
2019-04-16T06:20:35.630Z,55.79
2019-04-16T06:21:35.621Z,55.79
2019-04-16T06:22:35.606Z,55.90
2019-04-16T06:23:35.607Z,55.79
2019-04-16T06:24:36.116Z,55.79
2019-04-16T06:25:41.064Z,55.79
2019-04-16T06:26:36.599Z,55.79
2019-04-16T06:27:35.554Z,55.69
2019-04-16T06:28:35.547Z,55.79
2019-04-16T06:29:35.554Z,55.79
2019-04-16T06:30:35.540Z,55.79
2019-04-16T06:31:36.310Z,55.90
2019-04-16T06:32:35.525Z,55.90
2019-04-16T06:33:35.492Z,55.90
2019-04-16T06:34:35.483Z,55.90
2019-04-16T06:35:43.103Z,55.90
2019-04-16T06:36:36.484Z,55.90
2019-04-16T06:37:35.444Z,55.90
2019-04-16T06:38:35.440Z,55.90
2019-04-16T06:39:35.425Z,55.79
2019-04-16T06:40:35.426Z,55.69
2019-04-16T06:41:41.939Z,55.69
2019-04-16T06:42:38.494Z,55.69
2019-04-16T06:43:35.384Z,55.79
2019-04-16T06:44:35.486Z,55.90
2019-04-16T06:45:37.164Z,55.90
2019-04-16T06:46:39.434Z,55.90
2019-04-16T06:47:35.345Z,55.87
2019-04-16T06:48:35.397Z,55.90
2019-04-16T06:49:35.322Z,55.97
2019-04-16T06:50:39.716Z,55.90
2019-04-16T06:51:36.348Z,55.90
2019-04-16T06:52:35.286Z,55.99
2019-04-16T06:53:35.274Z,55.97
2019-04-16T06:54:35.266Z,55.99
2019-04-16T06:55:36.216Z,55.99
2019-04-16T06:56:37.370Z,55.90
2019-04-16T06:57:35.258Z,55.90
2019-04-16T06:58:50.272Z,55.90
2019-04-16T06:59:36.240Z,55.90
2019-04-16T07:00:35.336Z,55.90
2019-04-16T07:01:37.419Z,55.90
2019-04-16T07:02:37.340Z,55.90
2019-04-16T07:03:35.173Z,55.90
2019-04-16T07:04:35.196Z,55.79
2019-04-16T07:05:35.146Z,55.79
2019-04-16T07:06:36.283Z,55.69
2019-04-16T07:07:40.096Z,55.66
2019-04-16T07:08:38.063Z,55.69
2019-04-16T07:09:41.428Z,55.66
2019-04-16T07:10:44.342Z,55.66
2019-04-16T07:11:36.086Z,55.69
2019-04-16T07:12:38.481Z,55.69
2019-04-16T07:13:35.082Z,55.66
2019-04-16T07:14:36.217Z,55.69
2019-04-16T07:15:35.043Z,55.66
2019-04-16T07:16:35.107Z,55.69
2019-04-16T07:17:35.019Z,55.69
2019-04-16T07:18:35.518Z,55.69
2019-04-16T07:19:35.000Z,55.66
2019-04-16T07:20:34.985Z,55.66
2019-04-16T07:21:34.978Z,55.77
2019-04-16T07:22:34.992Z,55.69
2019-04-16T07:23:35.242Z,55.66
2019-04-16T07:24:37.439Z,55.66
2019-04-16T07:25:39.781Z,55.66
2019-04-16T07:26:38.582Z,55.79
2019-04-16T07:27:38.261Z,55.77
2019-04-16T07:28:35.018Z,55.77
2019-04-16T07:29:35.025Z,55.77
2019-04-16T07:30:38.675Z,55.66
2019-04-16T07:31:35.875Z,55.66
2019-04-16T07:32:34.864Z,55.66
2019-04-16T07:33:34.846Z,55.66
2019-04-16T07:34:34.883Z,55.69
2019-04-16T07:35:34.849Z,55.66
2019-04-16T07:36:34.867Z,55.66
2019-04-16T07:37:34.803Z,55.77
2019-04-16T07:38:35.351Z,55.77
2019-04-16T07:39:37.267Z,55.77
2019-04-16T07:40:34.775Z,55.77
2019-04-16T07:41:34.768Z,55.77
2019-04-16T07:42:34.774Z,55.77
2019-04-16T07:43:34.741Z,55.77
2019-04-16T07:44:36.446Z,55.79
2019-04-16T07:45:34.772Z,55.77
2019-04-16T07:46:34.737Z,55.87
2019-04-16T07:47:34.736Z,55.77
2019-04-16T07:48:34.723Z,55.77
2019-04-16T07:49:34.682Z,55.77
2019-04-16T07:50:34.673Z,55.66
2019-04-16T07:51:36.133Z,55.66
2019-04-16T07:52:34.647Z,55.66
2019-04-16T07:53:34.636Z,55.66
2019-04-16T07:54:34.664Z,55.66
2019-04-16T07:55:34.618Z,55.77
2019-04-16T07:56:34.615Z,55.77
2019-04-16T07:57:34.593Z,55.77
2019-04-16T07:58:34.606Z,55.77
2019-04-16T07:59:34.589Z,55.77
2019-04-16T08:00:34.586Z,55.66
2019-04-16T08:01:34.555Z,55.66
2019-04-16T08:02:34.618Z,55.57
2019-04-16T08:03:34.531Z,55.46
2019-04-16T08:04:35.615Z,55.46
2019-04-16T08:05:34.509Z,55.46
2019-04-16T08:06:34.511Z,55.46
2019-04-16T08:07:34.484Z,55.46
2019-04-16T08:08:34.495Z,55.57
2019-04-16T08:09:34.531Z,55.77
2019-04-16T08:10:34.457Z,55.77
2019-04-16T08:11:34.443Z,55.77
2019-04-16T08:12:34.436Z,55.87
2019-04-16T08:13:34.461Z,55.77
2019-04-16T08:14:34.435Z,55.57
2019-04-16T08:15:34.402Z,55.46
2019-04-16T08:16:46.621Z,55.57
2019-04-16T08:17:35.438Z,55.57
2019-04-16T08:18:34.369Z,55.57
2019-04-16T08:19:37.003Z,55.66
2019-04-16T08:20:34.376Z,55.66
2019-04-16T08:21:34.343Z,55.66
2019-04-16T08:22:34.330Z,55.57
2019-04-16T08:23:34.317Z,55.46
2019-04-16T08:24:34.310Z,55.36
2019-04-16T08:25:34.986Z,55.36
2019-04-16T08:26:34.312Z,55.26
2019-04-16T08:27:34.276Z,55.06
2019-04-16T08:28:34.268Z,54.96
2019-04-16T08:29:34.253Z,54.96
2019-04-16T08:30:39.001Z,55.06
2019-04-16T08:31:35.269Z,55.16
2019-04-16T08:32:34.244Z,55.16
2019-04-16T08:33:34.207Z,55.26
2019-04-16T08:34:34.196Z,55.26
2019-04-16T08:35:34.187Z,55.16
2019-04-16T08:36:34.401Z,55.16
2019-04-16T08:37:48.005Z,55.06
2019-04-16T08:38:35.158Z,55.06
2019-04-16T08:39:36.871Z,55.06
2019-04-16T08:40:35.160Z,54.96
2019-04-16T08:41:34.126Z,54.96
2019-04-16T08:42:44.276Z,54.96
2019-04-16T08:43:35.104Z,54.96
2019-04-16T08:44:35.674Z,55.26
2019-04-16T08:45:39.196Z,55.26
2019-04-16T08:46:35.072Z,54.96
2019-04-16T08:47:34.062Z,54.46
2019-04-16T08:48:34.076Z,54.36
2019-04-16T08:49:34.039Z,54.16
2019-04-16T08:50:34.049Z,54.46
2019-04-16T08:51:36.960Z,54.16
2019-04-16T08:52:34.013Z,54.36
2019-04-16T08:53:35.570Z,54.56
2019-04-16T08:54:33.985Z,54.56
2019-04-16T08:55:33.986Z,54.56
2019-04-16T08:56:34.002Z,54.56
2019-04-16T08:57:33.955Z,54.56
2019-04-16T08:58:35.689Z,54.56
2019-04-16T08:59:33.934Z,54.56
2019-04-16T09:00:33.925Z,54.56
2019-04-16T09:01:33.908Z,54.56
2019-04-16T09:02:34.113Z,54.56
2019-04-16T09:03:33.890Z,54.56
2019-04-16T09:04:34.656Z,54.46
2019-04-16T09:05:33.885Z,54.46
2019-04-16T09:06:33.859Z,54.46
2019-04-16T09:07:33.850Z,54.53
2019-04-16T09:08:33.855Z,54.53
2019-04-16T09:09:33.827Z,54.43
2019-04-16T09:10:33.817Z,54.43
2019-04-16T09:11:35.343Z,54.53
2019-04-16T09:12:33.896Z,54.53
2019-04-16T09:13:33.823Z,54.53
2019-04-16T09:14:33.775Z,54.63
2019-04-16T09:15:33.764Z,54.63
2019-04-16T09:16:33.749Z,54.53
2019-04-16T09:17:33.745Z,54.63
2019-04-16T09:18:33.729Z,54.63
2019-04-16T09:19:33.745Z,54.73
2019-04-16T09:20:34.736Z,54.73
2019-04-16T09:21:33.736Z,54.73
2019-04-16T09:22:47.867Z,54.73
2019-04-16T09:23:34.679Z,54.83
2019-04-16T09:24:33.665Z,54.94
2019-04-16T09:25:33.653Z,54.94
2019-04-16T09:26:33.644Z,55.04
2019-04-16T09:27:34.463Z,54.94
2019-04-16T09:28:33.632Z,54.94
2019-04-16T09:29:33.613Z,54.94
2019-04-16T09:30:33.602Z,54.73
2019-04-16T09:31:33.597Z,54.94
2019-04-16T09:32:33.574Z,54.94
2019-04-16T09:33:34.452Z,55.04
2019-04-16T09:34:35.611Z,55.04
2019-04-16T09:35:34.551Z,54.94
2019-04-16T09:36:33.551Z,54.83
2019-04-16T09:37:35.820Z,54.83
2019-04-16T09:38:33.535Z,54.94
2019-04-16T09:39:33.529Z,54.83
2019-04-16T09:40:33.600Z,54.83
2019-04-16T09:41:33.620Z,54.53
2019-04-16T09:42:33.493Z,54.63
2019-04-16T09:43:33.470Z,54.53
2019-04-16T09:44:35.319Z,54.43
2019-04-16T09:45:33.893Z,54.43
2019-04-16T09:46:50.673Z,54.43
2019-04-16T09:47:34.421Z,54.43
2019-04-16T09:48:34.819Z,54.43
2019-04-16T09:49:34.373Z,54.43
2019-04-16T09:50:33.389Z,54.43
2019-04-16T09:51:33.385Z,54.53
2019-04-16T09:52:33.370Z,54.53
2019-04-16T09:53:34.499Z,54.53
2019-04-16T09:54:34.375Z,54.53
2019-04-16T09:55:33.336Z,54.63
2019-04-16T09:56:33.321Z,54.63
2019-04-16T09:57:33.309Z,54.63
2019-04-16T09:58:34.848Z,54.63
2019-04-16T09:59:33.299Z,54.63
2019-04-16T10:00:33.314Z,54.63
2019-04-16T10:01:33.286Z,54.73
2019-04-16T10:02:33.264Z,54.73
2019-04-16T10:03:33.247Z,54.63
2019-04-16T10:04:33.238Z,54.73
2019-04-16T10:05:33.230Z,54.73
2019-04-16T10:06:33.249Z,54.73
2019-04-16T10:07:33.209Z,54.73
2019-04-16T10:08:33.199Z,54.73
2019-04-16T10:09:33.200Z,54.73
2019-04-16T10:10:33.197Z,54.73
2019-04-16T10:11:35.852Z,54.73
2019-04-16T10:12:33.175Z,54.73
2019-04-16T10:13:36.040Z,54.73
2019-04-16T10:14:33.158Z,54.73
2019-04-16T10:15:33.121Z,54.73
2019-04-16T10:16:33.110Z,54.73
2019-04-16T10:17:33.122Z,54.73
2019-04-16T10:18:35.212Z,54.83
2019-04-16T10:19:33.095Z,54.73
2019-04-16T10:20:33.078Z,54.83
2019-04-16T10:21:33.060Z,54.83
2019-04-16T10:22:33.083Z,54.83
2019-04-16T10:23:33.039Z,54.83
2019-04-16T10:24:33.060Z,54.73
2019-04-16T10:25:33.596Z,54.73
2019-04-16T10:26:33.004Z,54.73
2019-04-16T10:27:33.012Z,54.73
2019-04-16T10:28:33.918Z,54.73
2019-04-16T10:29:32.975Z,54.73
2019-04-16T10:30:32.977Z,54.63
2019-04-16T10:31:32.997Z,54.63
2019-04-16T10:32:32.945Z,54.63
2019-04-16T10:33:32.927Z,54.63
2019-04-16T10:34:36.047Z,54.63
2019-04-16T10:35:32.929Z,54.63
2019-04-16T10:36:37.137Z,54.53
2019-04-16T10:37:33.918Z,54.63
2019-04-16T10:38:32.870Z,54.53
2019-04-16T10:39:32.863Z,54.43
2019-04-16T10:40:32.855Z,54.33
2019-04-16T10:41:32.847Z,54.33
2019-04-16T10:42:32.872Z,54.33
2019-04-16T10:43:43.920Z,54.43
2019-04-16T10:44:33.812Z,54.43
2019-04-16T10:45:32.796Z,54.43
2019-04-16T10:46:32.810Z,54.43
2019-04-16T10:47:35.610Z,54.43
2019-04-16T10:48:33.025Z,54.33
2019-04-16T10:49:32.754Z,54.43
2019-04-16T10:50:32.754Z,54.53
2019-04-16T10:51:32.762Z,54.53
2019-04-16T10:52:32.731Z,54.43
2019-04-16T10:53:32.734Z,54.43
2019-04-16T10:54:33.707Z,54.43
2019-04-16T10:55:32.698Z,54.43
2019-04-16T10:56:32.684Z,54.43
2019-04-16T10:57:32.695Z,54.43
2019-04-16T10:58:32.661Z,54.43
2019-04-16T10:59:32.685Z,54.43
2019-04-16T11:00:32.862Z,54.43
2019-04-16T11:01:35.033Z,54.43
2019-04-16T11:02:32.619Z,54.33
2019-04-16T11:03:34.662Z,54.43
2019-04-16T11:04:32.596Z,54.43
2019-04-16T11:05:32.611Z,54.33
2019-04-16T11:06:32.599Z,54.23
2019-04-16T11:07:32.905Z,54.23
2019-04-16T11:08:32.804Z,54.23
2019-04-16T11:09:32.706Z,54.33
2019-04-16T11:10:32.886Z,54.23
2019-04-16T11:11:32.520Z,54.23
2019-04-16T11:12:32.534Z,54.23
2019-04-16T11:13:32.503Z,54.33
2019-04-16T11:14:32.547Z,54.23
2019-04-16T11:15:32.483Z,54.23
2019-04-16T11:16:35.821Z,54.23
2019-04-16T11:17:32.487Z,54.23
2019-04-16T11:18:32.509Z,54.13
2019-04-16T11:19:32.453Z,54.23
2019-04-16T11:20:32.438Z,54.23
2019-04-16T11:21:32.423Z,54.23
2019-04-16T11:22:32.404Z,54.33
2019-04-16T11:23:32.517Z,54.33
2019-04-16T11:24:32.436Z,54.33
2019-04-16T11:25:32.373Z,54.33
2019-04-16T11:26:32.359Z,54.33
2019-04-16T11:27:32.352Z,54.43
2019-04-16T11:28:32.341Z,54.43
2019-04-16T11:29:32.353Z,54.33
2019-04-16T11:30:32.320Z,54.33
2019-04-16T11:31:32.310Z,54.33
2019-04-16T11:32:32.300Z,54.33
2019-04-16T11:33:32.290Z,54.33
2019-04-16T11:34:32.298Z,54.33
2019-04-16T11:35:32.268Z,54.30
2019-04-16T11:36:32.260Z,54.33
2019-04-16T11:37:36.004Z,54.30
2019-04-16T11:38:32.272Z,54.33
2019-04-16T11:39:32.228Z,54.23
2019-04-16T11:40:32.218Z,54.23
2019-04-16T11:41:32.211Z,54.21
2019-04-16T11:42:32.220Z,54.23
2019-04-16T11:43:32.189Z,54.21
2019-04-16T11:44:32.229Z,54.21
2019-04-16T11:45:32.160Z,54.21
2019-04-16T11:46:32.175Z,54.21
2019-04-16T11:47:34.105Z,54.21
2019-04-16T11:48:37.294Z,54.21
2019-04-16T11:49:33.132Z,54.30
2019-04-16T11:50:35.722Z,54.30
2019-04-16T11:51:32.253Z,54.41
2019-04-16T11:52:32.114Z,54.41
2019-04-16T11:53:32.086Z,54.41
2019-04-16T11:54:32.103Z,54.50
2019-04-16T11:55:32.090Z,54.50
2019-04-16T11:56:32.068Z,54.50
2019-04-16T11:57:33.277Z,54.61
2019-04-16T11:58:32.040Z,54.61
2019-04-16T11:59:32.026Z,54.61
2019-04-16T12:00:32.001Z,54.61
2019-04-16T12:01:31.988Z,54.61
2019-04-16T12:02:32.012Z,54.61
2019-04-16T12:03:35.015Z,54.61
2019-04-16T12:04:32.005Z,54.50
2019-04-16T12:05:31.950Z,54.41
2019-04-16T12:06:31.965Z,54.41
2019-04-16T12:07:31.924Z,54.41
2019-04-16T12:08:31.999Z,54.50
2019-04-16T12:09:31.924Z,54.50
2019-04-16T12:10:31.911Z,54.61
2019-04-16T12:11:31.881Z,54.61
2019-04-16T12:12:31.944Z,54.71
2019-04-16T12:13:31.859Z,54.71
2019-04-16T12:14:34.625Z,54.81
2019-04-16T12:15:31.882Z,54.91
2019-04-16T12:16:31.868Z,54.91
2019-04-16T12:17:31.835Z,55.01
2019-04-16T12:18:32.319Z,54.91
2019-04-16T12:19:31.826Z,54.91
2019-04-16T12:20:31.828Z,54.91
2019-04-16T12:21:31.769Z,54.91
2019-04-16T12:22:31.801Z,54.91
2019-04-16T12:23:31.791Z,55.01
2019-04-16T12:24:31.791Z,55.01
2019-04-16T12:25:31.794Z,55.01
2019-04-16T12:26:31.859Z,55.01
2019-04-16T12:27:31.757Z,55.01
2019-04-16T12:28:31.700Z,55.11
2019-04-16T12:29:31.714Z,55.01
2019-04-16T12:30:31.713Z,55.11
2019-04-16T12:31:31.679Z,55.11
2019-04-16T12:32:31.667Z,55.21
2019-04-16T12:33:31.685Z,55.21
2019-04-16T12:34:31.665Z,55.21
2019-04-16T12:35:34.820Z,55.11
2019-04-16T12:36:31.623Z,55.11
2019-04-16T12:37:31.634Z,55.11
2019-04-16T12:38:31.717Z,55.11
2019-04-16T12:39:31.929Z,55.11
2019-04-16T12:40:31.620Z,55.11
2019-04-16T12:41:31.565Z,55.21
2019-04-16T12:42:31.560Z,55.21
2019-04-16T12:43:31.539Z,55.21
2019-04-16T12:44:44.703Z,55.31
2019-04-16T12:45:32.544Z,55.31
2019-04-16T12:46:31.528Z,55.39
2019-04-16T12:47:31.525Z,55.39
2019-04-16T12:48:31.486Z,55.39
2019-04-16T12:49:31.720Z,55.29
2019-04-16T12:50:31.511Z,55.29
2019-04-16T12:51:31.517Z,55.29
2019-04-16T12:52:31.445Z,55.19